createdAt,value
2018-02-11T00:00:40.354Z,28.30
2018-02-11T00:03:07.014Z,29.02
2018-02-11T00:05:33.666Z,30.15
2018-02-11T00:08:00.313Z,28.55
2018-02-11T00:10:26.977Z,26.40
2018-02-11T00:12:53.633Z,26.05
2018-02-11T00:15:20.301Z,25.52
2018-02-11T00:17:46.966Z,25.23
2018-02-11T00:20:13.641Z,23.73
2018-02-11T00:22:40.338Z,21.55
2018-02-11T00:25:06.993Z,23.65
2018-02-11T00:27:33.673Z,22.40
2018-02-11T00:30:00.353Z,21.52
2018-02-11T00:32:27.066Z,21.45
2018-02-11T00:34:53.740Z,21.85
2018-02-11T00:37:36.175Z,20.58
2018-02-11T00:40:02.972Z,20.95
2018-02-11T00:42:29.632Z,21.23
2018-02-11T00:44:56.305Z,21.75
2018-02-11T00:47:22.961Z,22.67
2018-02-11T00:49:49.654Z,21.95
2018-02-11T00:52:16.305Z,23.30
2018-02-11T00:54:42.956Z,21.85
2018-02-11T00:57:09.606Z,23.62
2018-02-11T00:59:36.364Z,21.58
2018-02-11T01:02:03.035Z,22.42
2018-02-11T01:04:29.698Z,19.98
2018-02-11T01:06:56.372Z,21.30
2018-02-11T01:09:23.174Z,21.42
2018-02-11T01:11:49.835Z,22.13
2018-02-11T01:14:16.481Z,20.50
2018-02-11T01:16:43.129Z,19.15
2018-02-11T01:19:09.789Z,19.80
2018-02-11T01:21:36.458Z,20.20
2018-02-11T01:24:03.109Z,20.08
2018-02-11T01:26:29.772Z,20.17
2018-02-11T01:28:56.430Z,19.50
2018-02-11T01:31:23.081Z,20.40
2018-02-11T01:33:49.738Z,20.00
2018-02-11T01:36:16.535Z,17.35
2018-02-11T01:38:43.281Z,18.55
2018-02-11T01:41:10.031Z,18.80
2018-02-11T01:43:36.754Z,16.20
2018-02-11T01:46:03.493Z,17.42
2018-02-11T01:48:30.168Z,17.20
2018-02-11T01:50:56.871Z,18.33
2018-02-11T01:53:23.611Z,18.90
2018-02-11T01:55:50.399Z,17.35
2018-02-11T01:58:17.092Z,18.08
2018-02-11T02:00:43.858Z,17.67
2018-02-11T02:03:10.602Z,17.70
2018-02-11T02:05:37.400Z,15.38
2018-02-11T02:08:04.114Z,16.50
2018-02-11T02:10:30.872Z,16.90
2018-02-11T02:12:57.592Z,15.77
2018-02-11T02:15:24.302Z,15.40
2018-02-11T02:17:51.011Z,16.98
2018-02-11T02:20:17.741Z,16.58
2018-02-11T02:22:44.451Z,15.30
2018-02-11T02:25:11.249Z,15.23
2018-02-11T02:27:37.966Z,17.10
2018-02-11T02:30:04.690Z,16.73
2018-02-11T02:32:31.474Z,15.48
2018-02-11T02:34:58.214Z,16.40
2018-02-11T02:37:24.969Z,17.15
2018-02-11T02:39:51.710Z,15.85
2018-02-11T02:42:18.456Z,16.12
2018-02-11T02:44:45.161Z,16.90
2018-02-11T02:47:11.907Z,14.70
2018-02-11T02:49:38.626Z,17.70
2018-02-11T02:52:05.369Z,15.77
2018-02-11T02:54:32.172Z,15.32
2018-02-11T02:56:58.927Z,16.23
2018-02-11T02:59:25.640Z,15.40
2018-02-11T03:01:52.322Z,15.50
2018-02-11T03:04:19.032Z,16.37
2018-02-11T03:06:45.742Z,15.90
2018-02-11T03:09:12.479Z,16.17
2018-02-11T03:11:39.181Z,15.10
2018-02-11T03:14:05.932Z,16.20
2018-02-11T03:16:32.648Z,14.95
2018-02-11T03:18:59.422Z,15.75
2018-02-11T03:21:26.248Z,14.40
2018-02-11T03:23:53.012Z,14.45
2018-02-11T03:26:19.800Z,15.05
2018-02-11T03:28:46.562Z,15.02
2018-02-11T03:31:13.270Z,13.70
2018-02-11T03:33:39.985Z,13.65
2018-02-11T03:36:06.831Z,13.35
2018-02-11T03:38:33.588Z,12.35
2018-02-11T03:41:00.267Z,11.57
2018-02-11T03:43:26.986Z,12.60
2018-02-11T03:45:53.766Z,12.30
2018-02-11T03:48:20.519Z,12.70
2018-02-11T03:50:47.228Z,13.70
2018-02-11T03:53:14.003Z,12.55
2018-02-11T03:55:40.726Z,13.13
2018-02-11T03:58:07.579Z,11.52
2018-02-11T04:00:34.281Z,12.48
2018-02-11T04:03:00.960Z,12.55
2018-02-11T04:05:27.736Z,11.45
2018-02-11T04:07:54.498Z,10.93
2018-02-11T04:10:21.258Z,11.93
2018-02-11T04:12:47.970Z,10.90
2018-02-11T04:15:14.708Z,11.80
2018-02-11T04:17:41.423Z,11.20
2018-02-11T04:20:08.186Z,11.45
2018-02-11T04:22:34.944Z,10.77
2018-02-11T04:25:01.686Z,11.93
2018-02-11T04:27:28.383Z,12.68
2018-02-11T04:29:55.128Z,11.43
2018-02-11T04:32:21.874Z,11.27
2018-02-11T04:34:48.626Z,10.70
2018-02-11T04:37:15.406Z,11.45
2018-02-11T04:42:17.550Z,10.95
2018-02-11T04:44:44.288Z,10.80
2018-02-11T04:47:11.069Z,11.48
2018-02-11T04:49:37.807Z,10.90
2018-02-11T04:52:04.545Z,12.32
2018-02-11T04:54:31.235Z,12.68
2018-02-11T04:56:58.053Z,11.88
2018-02-11T04:59:24.798Z,12.05
2018-02-11T05:01:51.508Z,11.57
2018-02-11T05:04:18.188Z,12.10
2018-02-11T05:06:44.942Z,13.90
2018-02-11T05:09:11.680Z,10.95
2018-02-11T05:11:38.439Z,11.95
2018-02-11T05:14:05.118Z,11.80
2018-02-11T05:16:31.821Z,13.68
2018-02-11T05:18:58.594Z,15.05
2018-02-11T05:21:25.310Z,14.25
2018-02-11T05:23:52.023Z,13.15
2018-02-11T05:26:18.774Z,12.90
2018-02-11T05:28:45.515Z,11.35
2018-02-11T05:31:12.301Z,12.35
2018-02-11T05:33:39.012Z,10.55
2018-02-11T05:36:05.798Z,12.40
2018-02-11T05:38:32.584Z,10.18
2018-02-11T05:40:59.347Z,11.12
2018-02-11T05:43:26.123Z,12.10
2018-02-11T05:45:52.922Z,10.48
2018-02-11T05:48:19.693Z,9.95
2018-02-11T05:50:46.425Z,10.38
2018-02-11T05:53:13.400Z,11.63
2018-02-11T05:55:40.114Z,10.55
2018-02-11T05:58:07.322Z,10.20
2018-02-11T06:00:34.062Z,10.27
2018-02-11T06:03:00.804Z,10.32
2018-02-11T06:05:27.578Z,11.00
2018-02-11T06:07:54.319Z,10.35
2018-02-11T06:10:21.038Z,10.60
2018-02-11T06:12:47.838Z,11.48
2018-02-11T06:15:14.575Z,10.65
2018-02-11T06:17:41.348Z,10.50
2018-02-11T06:20:08.129Z,10.43
2018-02-11T06:22:34.995Z,10.32
2018-02-11T06:25:01.689Z,10.25
2018-02-11T06:27:28.404Z,10.80
2018-02-11T06:29:55.127Z,11.45
2018-02-11T06:32:21.927Z,11.68
2018-02-11T06:34:49.487Z,10.70
2018-02-11T06:37:16.225Z,11.18
2018-02-11T06:39:42.944Z,13.02
2018-02-11T06:42:09.690Z,11.65
2018-02-11T06:44:36.417Z,12.45
2018-02-11T06:47:03.164Z,11.23
2018-02-11T06:49:29.904Z,11.05
2018-02-11T06:51:56.682Z,11.98
2018-02-11T06:54:23.409Z,12.77
2018-02-11T06:56:50.234Z,12.35
2018-02-11T06:59:16.924Z,11.88
2018-02-11T07:01:43.677Z,13.85
2018-02-11T07:04:10.421Z,12.02
2018-02-11T07:06:37.154Z,11.38
2018-02-11T07:09:03.894Z,10.70
2018-02-11T07:11:30.676Z,10.68
2018-02-11T07:13:57.506Z,10.77
2018-02-11T07:16:24.254Z,11.70
2018-02-11T07:18:51.010Z,10.05
2018-02-11T07:21:17.767Z,10.93
2018-02-11T07:23:44.491Z,10.85
2018-02-11T07:26:11.475Z,9.55
2018-02-11T07:28:38.234Z,9.38
2018-02-11T07:31:05.162Z,10.23
2018-02-11T07:33:31.950Z,8.73
2018-02-11T07:35:58.747Z,9.90
2018-02-11T07:38:25.718Z,9.25
2018-02-11T07:40:52.482Z,9.98
2018-02-11T07:43:19.264Z,9.57
2018-02-11T07:45:46.368Z,8.63
2018-02-11T07:48:13.454Z,11.40
2018-02-11T07:50:40.488Z,8.50
2018-02-11T07:53:07.341Z,9.65
2018-02-11T07:55:34.138Z,8.68
2018-02-11T07:58:01.049Z,9.18
2018-02-11T08:00:27.745Z,9.25
2018-02-11T08:02:54.675Z,6.97
2018-02-11T08:05:21.510Z,8.75
2018-02-11T08:07:49.019Z,10.05
2018-02-11T08:10:16.312Z,9.20
2018-02-11T08:12:43.314Z,9.27
2018-02-11T08:15:10.576Z,8.45
2018-02-11T08:17:37.670Z,9.30
2018-02-11T08:20:04.456Z,9.10
2018-02-11T08:22:32.043Z,9.48
2018-02-11T08:24:59.732Z,9.20
2018-02-11T08:27:26.769Z,9.60
2018-02-11T08:29:53.856Z,9.32
2018-02-11T08:32:20.692Z,10.10
2018-02-11T08:34:47.849Z,9.50
2018-02-11T08:37:14.670Z,9.15
2018-02-11T08:39:41.636Z,9.93
2018-02-11T08:42:08.394Z,9.05
2018-02-11T08:44:35.212Z,9.13
2018-02-11T08:47:02.026Z,10.10
2018-02-11T08:49:28.799Z,9.15
2018-02-11T08:51:55.541Z,9.15
2018-02-11T08:54:22.306Z,9.30
2018-02-11T08:56:49.035Z,8.85
2018-02-11T08:59:15.787Z,10.32
2018-02-11T09:01:42.672Z,7.40
2018-02-11T09:04:09.429Z,7.65
2018-02-11T09:06:36.208Z,7.43
2018-02-11T09:09:02.990Z,7.20
2018-02-11T09:11:29.774Z,7.43
2018-02-11T09:13:56.631Z,6.75
2018-02-11T09:16:23.473Z,7.43
2018-02-11T09:18:50.243Z,6.75
2018-02-11T09:21:17.054Z,6.82
2018-02-11T09:23:43.846Z,6.15
2018-02-11T09:26:10.612Z,6.40
2018-02-11T09:28:37.328Z,6.62
2018-02-11T09:31:04.179Z,6.30
2018-02-11T09:33:30.978Z,6.30
2018-02-11T09:35:57.778Z,7.93
2018-02-11T09:38:24.566Z,6.20
2018-02-11T09:40:51.775Z,5.85
2018-02-11T09:43:18.612Z,6.70
2018-02-11T09:45:45.329Z,6.25
2018-02-11T09:48:12.077Z,6.07
2018-02-11T09:50:38.920Z,5.97
2018-02-11T09:53:05.771Z,7.47
2018-02-11T09:55:32.519Z,5.82
2018-02-11T09:57:59.370Z,6.87
2018-02-11T10:00:26.201Z,6.00
2018-02-11T10:02:52.928Z,7.10
2018-02-11T10:05:19.633Z,6.45
2018-02-11T10:07:46.410Z,5.55
2018-02-11T10:10:13.108Z,6.45
2018-02-11T10:12:39.828Z,6.55
2018-02-11T10:15:06.530Z,6.57
2018-02-11T10:17:33.428Z,6.25
2018-02-11T10:20:00.137Z,5.60
2018-02-11T10:22:26.913Z,6.35
2018-02-11T10:24:53.652Z,5.12
2018-02-11T10:27:20.392Z,5.55
2018-02-11T10:29:47.107Z,5.53
2018-02-11T10:32:13.895Z,6.70
2018-02-11T10:34:40.611Z,4.70
2018-02-11T10:37:07.365Z,5.60
2018-02-11T10:39:34.113Z,4.87
2018-02-11T10:42:00.855Z,5.95
2018-02-11T10:44:27.592Z,5.62
2018-02-11T10:46:54.328Z,5.32
2018-02-11T10:49:21.041Z,5.57
2018-02-11T10:51:47.840Z,5.53
2018-02-11T10:54:14.576Z,5.28
2018-02-11T10:56:41.311Z,5.62
2018-02-11T10:59:08.238Z,5.85
2018-02-11T11:01:35.037Z,5.03
2018-02-11T11:04:01.801Z,5.20
2018-02-11T11:06:28.563Z,12.07
2018-02-11T11:08:55.334Z,5.05
2018-02-11T11:11:22.054Z,4.95
2018-02-11T11:13:48.789Z,5.45
2018-02-11T11:16:15.483Z,5.10
2018-02-11T11:18:42.228Z,4.75
2018-02-11T11:21:09.031Z,4.97
2018-02-11T11:23:35.718Z,5.07
2018-02-11T11:26:02.422Z,6.30
2018-02-11T11:28:29.300Z,5.00
2018-02-11T11:30:56.050Z,5.15
2018-02-11T11:33:22.781Z,5.32
2018-02-11T11:35:49.607Z,4.90
2018-02-11T11:38:16.809Z,5.53
2018-02-11T11:40:43.928Z,5.12
2018-02-11T11:43:10.912Z,4.97
2018-02-11T11:45:37.735Z,4.97
2018-02-11T11:48:04.417Z,4.70
2018-02-11T11:50:31.508Z,5.45
2018-02-11T11:52:58.249Z,5.10
2018-02-11T11:55:25.112Z,5.20
2018-02-11T11:57:51.830Z,5.05
2018-02-11T12:00:18.593Z,6.20
2018-02-11T12:02:45.691Z,4.70
2018-02-11T12:05:12.566Z,4.85
2018-02-11T12:07:39.296Z,4.82
2018-02-11T12:10:06.061Z,4.93
2018-02-11T12:12:32.882Z,5.03
2018-02-11T12:14:59.669Z,4.75
2018-02-11T12:17:26.458Z,4.90
2018-02-11T12:19:53.304Z,6.43
2018-02-11T12:22:20.062Z,5.45
2018-02-11T12:24:47.050Z,4.72
2018-02-11T12:27:13.805Z,5.85
2018-02-11T12:29:40.453Z,5.43
2018-02-11T12:32:07.162Z,5.62
2018-02-11T12:34:33.808Z,5.03
2018-02-11T12:37:00.457Z,5.22
2018-02-11T12:39:27.166Z,5.25
2018-02-11T12:41:53.816Z,5.30
2018-02-11T12:44:20.466Z,5.00
2018-02-11T12:46:47.272Z,5.55
2018-02-11T12:49:13.998Z,5.00
2018-02-11T12:51:40.879Z,5.45
2018-02-11T12:54:07.520Z,5.55
2018-02-11T12:56:34.232Z,5.28
2018-02-11T12:59:00.882Z,5.85
2018-02-11T13:01:27.658Z,5.30
2018-02-11T13:03:54.337Z,5.78
2018-02-11T13:06:21.011Z,6.18
2018-02-11T13:08:47.719Z,6.00
2018-02-11T13:11:14.369Z,6.10
2018-02-11T13:13:41.005Z,6.20
2018-02-11T13:16:07.677Z,10.75
2018-02-11T13:18:34.352Z,6.32
2018-02-11T13:21:01.021Z,6.53
2018-02-11T13:23:27.695Z,6.30
2018-02-11T13:25:54.381Z,6.43
2018-02-11T13:28:21.019Z,6.68
2018-02-11T13:30:47.728Z,5.70
2018-02-11T13:33:14.393Z,6.65
2018-02-11T13:35:41.039Z,6.72
2018-02-11T13:38:07.689Z,6.68
2018-02-11T13:40:34.338Z,7.35
2018-02-11T13:43:00.989Z,6.50
2018-02-11T13:45:27.625Z,6.40
2018-02-11T13:47:54.284Z,7.10
2018-02-11T13:50:20.935Z,7.00
2018-02-11T13:52:47.579Z,7.15
2018-02-11T13:55:14.244Z,7.30
2018-02-11T13:57:40.946Z,7.57
2018-02-11T14:00:07.621Z,7.93
2018-02-11T14:02:34.486Z,8.88
2018-02-11T14:05:01.196Z,6.93
2018-02-11T14:07:28.099Z,6.87
2018-02-11T14:09:54.779Z,8.50
2018-02-11T14:12:21.433Z,8.55
2018-02-11T14:14:48.114Z,27.62
2018-02-11T14:17:14.773Z,10.40
2018-02-11T14:19:41.430Z,7.72
2018-02-11T14:22:08.098Z,7.60
2018-02-11T14:24:34.769Z,7.72
2018-02-11T14:27:01.429Z,8.88
2018-02-11T14:29:28.127Z,8.23
2018-02-11T14:31:54.773Z,8.70
2018-02-11T14:34:21.437Z,8.02
2018-02-11T14:36:48.097Z,8.63
2018-02-11T14:39:15.572Z,8.25
2018-02-11T14:41:42.217Z,8.43
2018-02-11T14:44:08.877Z,8.13
2018-02-11T14:46:35.521Z,8.00
2018-02-11T14:49:02.191Z,9.05
2018-02-11T14:51:28.858Z,6.53
2018-02-11T14:53:55.522Z,4.35
2018-02-11T14:56:22.344Z,5.20
2018-02-11T14:58:49.086Z,4.35
2018-02-11T15:01:15.729Z,5.50
2018-02-11T15:03:42.402Z,6.30
2018-02-11T15:06:09.045Z,5.43
2018-02-11T15:08:35.728Z,6.62
2018-02-11T15:11:02.449Z,6.18
2018-02-11T15:13:29.227Z,5.90
2018-02-11T15:15:55.886Z,7.45
2018-02-11T15:18:22.599Z,7.60
2018-02-11T15:20:49.447Z,8.32
2018-02-11T15:23:16.148Z,9.25
2018-02-11T15:25:42.872Z,8.57
2018-02-11T15:28:09.548Z,8.40
2018-02-11T15:30:37.123Z,7.68
2018-02-11T15:33:03.781Z,7.75
2018-02-11T15:35:30.500Z,8.50
2018-02-11T15:37:58.104Z,8.43
2018-02-11T15:40:25.020Z,8.73
2018-02-11T15:42:51.736Z,9.07
2018-02-11T15:45:18.624Z,9.85
2018-02-11T15:47:45.708Z,9.52
2018-02-11T15:50:12.499Z,8.88
2018-02-11T15:52:39.283Z,8.50
2018-02-11T15:55:06.010Z,8.38
2018-02-11T15:57:33.783Z,9.15
2018-02-11T16:00:00.587Z,9.32
2018-02-11T16:02:27.256Z,11.18
2018-02-11T16:04:54.590Z,8.50
2018-02-11T16:07:21.900Z,9.20
2018-02-11T16:09:48.981Z,7.93
2018-02-11T16:12:15.703Z,8.48
2018-02-11T16:14:42.386Z,8.02
2018-02-11T16:17:09.029Z,7.37
2018-02-11T16:19:35.678Z,8.07
2018-02-11T16:22:02.690Z,7.30
2018-02-11T16:24:29.416Z,8.32
2018-02-11T16:26:56.100Z,8.65
2018-02-11T16:29:22.816Z,8.65
2018-02-11T16:31:49.522Z,8.43
2018-02-11T16:34:16.198Z,7.95
2018-02-11T16:36:42.951Z,8.73
2018-02-11T16:39:09.653Z,8.68
2018-02-11T16:41:36.318Z,8.75
2018-02-11T16:44:03.019Z,8.90
2018-02-11T16:46:29.697Z,9.07
2018-02-11T16:48:56.344Z,8.75
2018-02-11T16:51:23.104Z,8.60
2018-02-11T16:53:49.857Z,9.13
2018-02-11T16:56:16.566Z,8.88
2018-02-11T16:58:43.212Z,9.13
2018-02-11T17:01:09.882Z,9.20
2018-02-11T17:03:36.524Z,9.07
2018-02-11T17:06:03.324Z,9.55
2018-02-11T17:08:29.993Z,9.43
2018-02-11T17:10:56.741Z,10.13
2018-02-11T17:13:23.699Z,10.88
2018-02-11T17:15:50.532Z,9.45
2018-02-11T17:18:17.202Z,10.68
2018-02-11T17:20:44.223Z,10.00
2018-02-11T17:23:11.117Z,10.30
2018-02-11T17:25:37.914Z,10.80
2018-02-11T17:28:04.766Z,9.27
2018-02-11T17:30:35.088Z,10.20
2018-02-11T17:33:02.119Z,9.82
2018-02-11T17:35:28.804Z,10.48
2018-02-11T17:37:55.469Z,10.70
2018-02-11T17:40:22.446Z,11.75
2018-02-11T17:42:49.197Z,11.20
2018-02-11T17:45:16.248Z,9.80
2018-02-11T17:47:42.921Z,10.40
2018-02-11T17:50:09.819Z,11.35
2018-02-11T17:52:36.717Z,15.65
2018-02-11T17:55:03.376Z,11.55
2018-02-11T17:57:30.106Z,13.50
2018-02-11T17:59:56.786Z,10.35
2018-02-11T18:02:23.441Z,13.32
2018-02-11T18:04:50.206Z,14.87
2018-02-11T18:07:17.156Z,9.95
2018-02-11T18:09:43.992Z,12.32
2018-02-11T18:12:10.939Z,11.35
2018-02-11T18:14:37.678Z,10.85
2018-02-11T18:17:04.628Z,9.95
2018-02-11T18:19:32.260Z,9.80
2018-02-11T18:21:59.388Z,9.07
2018-02-11T18:24:26.172Z,9.52
2018-02-11T18:26:53.017Z,7.93
2018-02-11T18:29:20.253Z,6.80
2018-02-11T18:31:47.016Z,6.97
2018-02-11T18:34:13.746Z,7.35
2018-02-11T18:36:40.420Z,6.87
2018-02-11T18:39:07.379Z,8.73
2018-02-11T18:41:34.105Z,6.72
2018-02-11T18:44:00.820Z,8.20
2018-02-11T18:46:27.477Z,7.20
2018-02-11T18:48:54.180Z,7.40
2018-02-11T18:51:20.808Z,6.43
2018-02-11T18:53:47.806Z,6.60
2018-02-11T18:56:14.517Z,6.53
2018-02-11T18:58:41.356Z,5.95
2018-02-11T19:01:08.352Z,7.28
2018-02-11T19:03:35.104Z,7.03
2018-02-11T19:06:01.770Z,6.40
2018-02-11T19:08:28.423Z,7.72
2018-02-11T19:10:55.085Z,7.05
2018-02-11T19:13:21.878Z,5.68
2018-02-11T19:15:48.588Z,7.28
2018-02-11T19:18:15.245Z,6.37
2018-02-11T19:20:42.140Z,5.70
2018-02-11T19:23:08.825Z,5.60
2018-02-11T19:25:35.509Z,5.87
2018-02-11T19:28:02.243Z,5.82
2018-02-11T19:30:28.998Z,5.05
2018-02-11T19:32:55.646Z,5.40
2018-02-11T19:35:23.200Z,5.18
2018-02-11T19:37:50.119Z,4.53
2018-02-11T19:40:16.878Z,4.87
2018-02-11T19:42:44.083Z,4.25
2018-02-11T19:45:10.886Z,4.45
2018-02-11T19:47:37.725Z,5.35
2018-02-11T19:50:04.434Z,4.45
2018-02-11T19:52:31.148Z,4.30
2018-02-11T19:54:57.945Z,4.10
2018-02-11T19:57:24.620Z,4.15
2018-02-11T19:59:51.456Z,4.93
2018-02-11T20:02:18.761Z,3.83
2018-02-11T20:04:45.451Z,4.78
2018-02-11T20:07:12.152Z,3.83
2018-02-11T20:09:38.806Z,4.40
2018-02-11T20:12:05.502Z,4.07
2018-02-11T20:14:32.203Z,4.60
2018-02-11T20:16:58.959Z,4.75
2018-02-11T20:19:26.437Z,5.85
2018-02-11T20:21:53.453Z,4.05
2018-02-11T20:24:20.389Z,4.40
2018-02-11T20:26:47.517Z,4.40
2018-02-11T20:29:14.260Z,4.68
2018-02-11T20:31:41.126Z,4.10
2018-02-11T20:34:07.994Z,4.53
2018-02-11T20:36:34.761Z,4.45
2018-02-11T20:39:02.241Z,4.53
2018-02-11T20:41:28.944Z,4.32
2018-02-11T20:43:55.662Z,5.28
2018-02-11T20:46:22.621Z,7.05
2018-02-11T20:48:49.595Z,6.68
2018-02-11T20:51:16.757Z,7.00
2018-02-11T20:53:44.819Z,6.68
2018-02-11T20:56:11.558Z,6.82
2018-02-11T20:58:38.297Z,7.00
2018-02-11T21:01:05.029Z,6.82
2018-02-11T21:03:31.781Z,6.80
2018-02-11T21:05:58.642Z,7.25
2018-02-11T21:08:25.391Z,6.90
2018-02-11T21:10:52.287Z,6.35
2018-02-11T21:13:19.008Z,5.95
2018-02-11T21:15:45.682Z,5.62
2018-02-11T21:18:12.411Z,6.22
2018-02-11T21:20:39.108Z,6.25
2018-02-11T21:23:05.823Z,5.40
2018-02-11T21:25:33.444Z,5.95
2018-02-11T21:28:00.147Z,5.78
2018-02-11T21:30:26.846Z,5.85
2018-02-11T21:32:53.541Z,5.62
2018-02-11T21:35:20.245Z,7.68
2018-02-11T21:37:46.953Z,8.63
2018-02-11T21:40:14.329Z,6.40
2018-02-11T21:42:41.028Z,7.93
2018-02-11T21:45:07.746Z,9.45
2018-02-11T21:47:34.784Z,8.73
2018-02-11T21:50:01.554Z,11.80
2018-02-11T21:52:28.206Z,7.30
2018-02-11T21:54:55.206Z,8.45
2018-02-11T21:57:21.873Z,7.28
2018-02-11T21:59:48.600Z,10.30
2018-02-11T22:02:15.587Z,7.53
2018-02-11T22:04:42.304Z,7.55
2018-02-11T22:07:09.019Z,6.82
2018-02-11T22:09:35.700Z,9.43
2018-02-11T22:12:02.790Z,7.37
2018-02-11T22:14:29.493Z,7.57
2018-02-11T22:16:56.460Z,7.60
2018-02-11T22:19:23.587Z,6.40
2018-02-11T22:21:50.306Z,7.60
2018-02-11T22:24:17.310Z,7.40
2018-02-11T22:26:44.602Z,8.35
2018-02-11T22:29:11.299Z,9.95
2018-02-11T22:31:37.974Z,7.65
2018-02-11T22:34:04.964Z,7.03
2018-02-11T22:36:31.676Z,11.40
2018-02-11T22:38:58.317Z,7.00
2018-02-11T22:41:25.006Z,5.25
2018-02-11T22:43:51.655Z,7.97
2018-02-11T22:46:18.309Z,5.90
2018-02-11T22:48:44.964Z,8.32
2018-02-11T22:51:11.602Z,6.07
2018-02-11T22:53:38.260Z,6.03
2018-02-11T22:56:04.917Z,6.90
2018-02-11T22:58:31.562Z,6.62
2018-02-11T23:00:58.206Z,5.82
2018-02-11T23:03:24.924Z,5.80
2018-02-11T23:05:51.579Z,6.28
2018-02-11T23:08:18.257Z,6.32
2018-02-11T23:10:44.921Z,5.87
2018-02-11T23:13:11.565Z,5.93
2018-02-11T23:15:38.215Z,5.40
2018-02-11T23:18:04.873Z,5.35
2018-02-11T23:20:31.550Z,6.72
2018-02-11T23:22:58.218Z,5.87
2018-02-11T23:25:24.878Z,5.78
2018-02-11T23:27:51.596Z,5.87
2018-02-11T23:30:18.255Z,7.32
2018-02-11T23:32:44.931Z,6.40
2018-02-11T23:35:11.607Z,5.07
2018-02-11T23:37:38.268Z,5.68
2018-02-11T23:40:04.947Z,5.65
2018-02-11T23:42:31.635Z,5.87
2018-02-11T23:44:58.285Z,5.10
2018-02-11T23:47:24.944Z,5.07
2018-02-11T23:49:51.597Z,5.82
2018-02-11T23:52:18.243Z,5.07
2018-02-11T23:54:44.909Z,5.60
2018-02-11T23:57:11.570Z,6.32
2018-02-11T23:59:38.286Z,6.10
